Time;durP1;ratioP1;P1;durP2;ratioP2;P2;SDS_P1;SDS_P2;PMS_P1;PMS_P2;Temp;Humidity;BMP_temperature;BMP_pressure;BME280_temperature;BME280_humidity;BME280_pressure;Samples;Min_cycle;Max_cycle;Signal;HPM_P1;HPM_P2
2022/03/18 00:00:18;;;;;;;;;;;;;;;26.96;59.34;98794.45;625828;226;67250;-65
2022/03/18 00:02:46;;;;;;;;;;;;;;;26.95;59.54;98800.09;625876;226;64994;-64
2022/03/18 00:05:13;;;;;;;;;;;;;;;26.95;58.71;98800.09;625835;226;65560;-64
2022/03/18 00:07:41;;;;;;;;;;;;;;;26.95;60.12;98800.09;625817;226;64819;-64
2022/03/18 00:10:09;;;;;;;;;;;;;;;26.91;60.00;98799.03;625826;226;64964;-64
2022/03/18 00:12:37;;;;;;;;;;;;;;;26.91;59.07;98805.23;625844;226;65170;-65
2022/03/18 00:15:07;;;;;;;;;;;;;;;26.91;60.22;98799.03;625866;226;67070;-65
2022/03/18 00:17:34;;;;;;;;;;;;;;;26.90;59.52;98794.69;625791;226;64926;-65
2022/03/18 00:20:02;;;;;;;;;;;;;;;26.88;59.52;98794.17;625831;226;63225;-65
2022/03/18 00:22:29;;;;;;;;;;;;;;;26.88;59.91;98791.47;625824;226;67232;-65
2022/03/18 00:24:57;;;;;;;;;;;;;;;26.86;60.27;98793.62;625832;226;67032;-65
2022/03/18 00:27:25;;;;;;;;;;;;;;;26.86;60.10;98796.31;625886;226;65285;-65
2022/03/18 00:29:54;;;;;;;;;;;;;;;26.83;60.96;98797.66;625849;226;67938;-65
2022/03/18 00:32:22;;;;;;;;;;;;;;;26.84;60.42;98788.48;625843;226;64984;-65
2022/03/18 00:34:50;;;;;;;;;;;;;;;26.81;59.98;98788.20;625811;226;65332;-65
2022/03/18 00:37:17;;;;;;;;;;;;;;;26.81;59.54;98799.00;625852;226;67302;-65
2022/03/18 00:39:45;;;;;;;;;;;;;;;26.78;60.25;98801.14;625883;226;66980;-65
2022/03/18 00:42:12;;;;;;;;;;;;;;;26.78;60.67;98800.34;625867;226;65287;-65
2022/03/18 00:44:40;;;;;;;;;;;;;;;26.77;60.43;98807.62;625807;226;67175;-65
2022/03/18 00:52:24;;;;;;;;;;;;;;;26.76;59.67;98802.48;625837;226;67238;-66
2022/03/18 00:54:51;;;;;;;;;;;;;;;26.74;59.66;98810.86;625802;226;67030;-66
2022/03/18 00:57:19;;;;;;;;;;;;;;;26.73;59.15;98811.91;625886;226;65308;-66
2022/03/18 00:59:46;;;;;;;;;;;;;;;26.72;61.35;98812.19;625849;226;67173;-66
2022/03/18 01:02:14;;;;;;;;;;;;;;;26.71;60.52;98811.39;625830;226;67073;-66
2022/03/18 01:04:41;;;;;;;;;;;;;;;26.71;61.11;98807.86;625844;226;63148;-66
2022/03/18 01:07:09;;;;;;;;;;;;;;;26.71;58.85;98813.25;625842;226;66798;-66
2022/03/18 01:09:36;;;;;;;;;;;;;;;26.69;59.96;98812.73;625867;226;67823;-66
2022/03/18 01:12:04;;;;;;;;;;;;;;;26.71;60.75;98810.55;625802;226;65289;-65
2022/03/18 01:14:32;;;;;;;;;;;;;;;26.69;59.98;98818.13;625807;226;67444;-65
2022/03/18 01:16:59;;;;;;;;;;;;;;;26.69;60.89;98820.82;626163;226;66997;-65
2022/03/18 01:19:27;;;;;;;;;;;;;;;26.69;60.26;98810.03;626611;226;65447;-65
2022/03/18 01:21:54;;;;;;;;;;;;;;;26.66;61.01;98814.06;626659;226;67177;-65
2022/03/18 01:24:24;;;;;;;;;;;;;;;26.67;60.76;98817.56;626653;226;66892;-65
2022/03/18 01:26:51;;;;;;;;;;;;;;;26.66;59.68;98819.46;626624;226;65413;-65
2022/03/18 01:29:18;;;;;;;;;;;;;;;26.66;58.19;98813.27;626612;226;64869;-65
2022/03/18 01:31:48;;;;;;;;;;;;;;;26.67;60.86;98822.96;626623;226;65007;-65
2022/03/18 01:34:15;;;;;;;;;;;;;;;26.64;59.07;98812.71;626655;226;62806;-65
2022/03/18 01:36:43;;;;;;;;;;;;;;;26.64;59.22;98812.71;626584;226;67341;-65
2022/03/18 01:39:12;;;;;;;;;;;;;;;26.63;60.59;98814.60;626612;226;66988;-65
2022/03/18 01:41:40;;;;;;;;;;;;;;;26.62;60.15;98820.25;626639;226;65420;-65
2022/03/18 01:44:10;;;;;;;;;;;;;;;26.60;60.41;98817.83;626646;226;67189;-66
2022/03/18 01:46:37;;;;;;;;;;;;;;;26.60;60.12;98817.83;626450;226;64816;-66
2022/03/18 01:49:06;;;;;;;;;;;;;;;26.58;57.45;98829.95;626610;226;65274;-66
2022/03/18 01:51:34;;;;;;;;;;;;;;;26.57;62.15;98831.81;626619;226;64835;-66
2022/03/18 01:56:48;;;;;;;;;;;;;;;26.57;59.69;98837.20;626662;226;65233;-65
2022/03/18 01:59:16;;;;;;;;;;;;;;;26.56;61.45;98840.98;626689;226;67281;-65
2022/03/18 02:01:43;;;;;;;;;;;;;;;26.54;58.95;98841.23;626612;226;68504;-65
2022/03/18 02:04:11;;;;;;;;;;;;;;;26.52;57.55;98837.21;626645;226;65233;-64
2022/03/18 02:06:38;;;;;;;;;;;;;;;26.55;59.60;98855.55;626635;226;67258;-64
2022/03/18 02:09:06;;;;;;;;;;;;;;;26.52;60.84;98853.39;626657;226;67015;-64
2022/03/18 02:11:34;;;;;;;;;;;;;;;26.52;60.04;98856.89;626696;226;63049;-64
2022/03/18 02:14:01;;;;;;;;;;;;;;;26.51;59.63;98854.45;626615;226;64917;-64
2022/03/18 02:16:29;;;;;;;;;;;;;;;26.49;59.66;98851.16;626588;226;64955;-64
2022/03/18 02:18:56;;;;;;;;;;;;;;;26.49;59.03;98857.39;626661;226;63216;-64
2022/03/18 02:21:25;;;;;;;;;;;;;;;26.48;62.16;98854.94;626656;226;64737;-64
2022/03/18 02:23:53;;;;;;;;;;;;;;;26.46;57.88;98847.10;626697;226;66968;-64
2022/03/18 02:26:20;;;;;;;;;;;;;;;26.46;59.01;98855.19;626594;226;65312;-64
2022/03/18 02:28:47;;;;;;;;;;;;;;;26.46;61.08;98862.47;626634;226;67286;-64
2022/03/18 02:31:15;;;;;;;;;;;;;;;26.45;60.32;98850.08;626642;226;66976;-65
2022/03/18 02:33:43;;;;;;;;;;;;;;;26.44;57.21;98854.66;626642;226;65269;-65
2022/03/18 02:36:10;;;;;;;;;;;;;;;26.44;57.06;98854.66;626710;226;67283;-64
2022/03/18 02:38:37;;;;;;;;;;;;;;;26.44;59.93;98860.05;626677;226;67008;-64
2022/03/18 02:41:05;;;;;;;;;;;;;;;26.43;58.64;98857.61;626617;226;65452;-64
2022/03/18 02:43:32;;;;;;;;;;;;;;;26.42;56.76;98853.30;626677;226;67037;-64
2022/03/18 02:46:00;;;;;;;;;;;;;;;26.40;57.93;98864.33;626636;226;67126;-64
2022/03/18 02:48:27;;;;;;;;;;;;;;;26.41;60.27;98865.14;626648;226;65323;-64
2022/03/18 02:50:55;;;;;;;;;;;;;;;26.40;60.17;98869.72;626668;226;67190;-64
2022/03/18 02:53:22;;;;;;;;;;;;;;;26.39;58.20;98867.31;626616;226;66860;-64
2022/03/18 02:55:50;;;;;;;;;;;;;;;26.39;59.86;98876.20;626638;226;65305;-64
2022/03/18 02:58:17;;;;;;;;;;;;;;;26.37;58.29;98869.45;626664;226;67227;-65
2022/03/18 03:00:45;;;;;;;;;;;;;;;26.37;56.72;98877.53;626662;226;64633;-65
2022/03/18 03:03:12;;;;;;;;;;;;;;;26.35;58.02;98867.00;626688;226;63004;-64
2022/03/18 03:08:25;;;;;;;;;;;;;;;26.35;61.35;98877.78;626706;226;66532;-64
2022/03/18 03:10:53;;;;;;;;;;;;;;;26.33;59.76;98879.95;626645;226;63145;-64
2022/03/18 03:13:22;;;;;;;;;;;;;;;26.32;58.21;98875.61;626663;226;64680;-64
2022/03/18 03:15:50;;;;;;;;;;;;;;;26.30;58.78;98883.14;626576;226;66876;-64
2022/03/18 03:18:17;;;;;;;;;;;;;;;26.29;57.05;98890.42;626712;226;63281;-64
2022/03/18 03:20:45;;;;;;;;;;;;;;;26.30;57.63;98894.76;626638;226;64652;-64
2022/03/18 03:23:12;;;;;;;;;;;;;;;26.28;57.58;98896.89;626669;226;64688;-64
2022/03/18 03:25:40;;;;;;;;;;;;;;;26.26;57.76;98901.72;626668;226;65151;-64
2022/03/18 03:28:07;;;;;;;;;;;;;;;26.25;58.16;98907.39;626671;226;66943;-64
2022/03/18 03:30:35;;;;;;;;;;;;;;;26.25;58.49;98907.39;626679;226;67035;-64
2022/03/18 03:33:02;;;;;;;;;;;;;;;26.24;58.97;98908.44;626620;226;65351;-64
2022/03/18 03:35:30;;;;;;;;;;;;;;;26.23;58.58;98921.11;626648;226;66689;-64
2022/03/18 03:37:57;;;;;;;;;;;;;;;26.22;58.57;98919.50;626633;226;66810;-65
2022/03/18 03:40:25;;;;;;;;;;;;;;;26.20;57.73;98929.72;626622;226;64967;-65
2022/03/18 03:42:53;;;;;;;;;;;;;;;26.21;60.63;98930.52;626690;226;67475;-65
2022/03/18 03:45:20;;;;;;;;;;;;;;;26.19;59.13;98933.50;626639;226;64837;-65
2022/03/18 03:47:48;;;;;;;;;;;;;;;26.20;61.84;98935.11;626606;226;63362;-65
2022/03/18 03:50:16;;;;;;;;;;;;;;;26.17;59.38;98942.91;626644;226;65936;-65
2022/03/18 03:52:43;;;;;;;;;;;;;;;26.17;59.87;98951.80;626618;226;64834;-65
2022/03/18 03:55:12;;;;;;;;;;;;;;;26.15;58.94;98937.77;626654;226;62899;-65
2022/03/18 03:57:40;;;;;;;;;;;;;;;26.13;61.76;98950.67;626656;225;67068;-65
2022/03/18 04:00:09;;;;;;;;;;;;;;;26.13;59.77;98954.17;626620;226;66833;-65
2022/03/18 04:02:41;;;;;;;;;;;;;;;26.11;60.31;98956.34;626628;226;65510;-65
2022/03/18 04:05:09;;;;;;;;;;;;;;;26.12;59.00;98957.14;626614;226;67230;-65
2022/03/18 04:07:37;;;;;;;;;;;;;;;26.11;59.51;98960.92;626653;226;67216;-65
2022/03/18 04:10:06;;;;;;;;;;;;;;;26.09;58.75;98965.75;626686;226;65348;-65
2022/03/18 04:12:33;;;;;;;;;;;;;;;26.09;58.35;98965.75;626625;226;65061;-65
2022/03/18 04:15:01;;;;;;;;;;;;;;;26.10;60.68;98964.67;626575;226;66981;-65
2022/03/18 04:17:30;;;;;;;;;;;;;;;26.09;59.30;98968.44;626002;226;65552;-64
2022/03/18 04:19:58;;;;;;;;;;;;;;;26.08;60.12;98964.10;623810;226;67189;-64
2022/03/18 04:22:26;;;;;;;;;;;;;;;26.07;59.55;98968.69;625913;226;64739;-64
2022/03/18 04:24:53;;;;;;;;;;;;;;;26.06;57.92;98975.16;625830;226;63237;-64
2022/03/18 04:27:21;;;;;;;;;;;;;;;26.04;60.03;98968.40;625804;226;64884;-64
2022/03/18 04:29:48;;;;;;;;;;;;;;;26.03;60.61;98967.59;625816;226;67283;-65
2022/03/18 04:32:16;;;;;;;;;;;;;;;26.02;58.67;98965.95;625834;226;64986;-65
2022/03/18 04:34:43;;;;;;;;;;;;;;;26.03;60.74;98977.56;625873;226;67102;-65
2022/03/18 04:37:10;;;;;;;;;;;;;;;26.01;60.45;98979.69;625849;226;66978;-65
2022/03/18 04:39:38;;;;;;;;;;;;;;;26.00;59.10;98980.74;625806;226;65435;-65
2022/03/18 04:42:05;;;;;;;;;;;;;;;25.99;58.23;98976.44;625808;226;67175;-65
2022/03/18 04:44:33;;;;;;;;;;;;;;;25.98;58.36;98982.91;625823;226;67015;-65
2022/03/18 04:47:00;;;;;;;;;;;;;;;25.97;60.73;98989.34;625852;226;65245;-65
2022/03/18 04:49:28;;;;;;;;;;;;;;;25.97;60.38;98990.14;625895;226;66840;-65
2022/03/18 04:51:56;;;;;;;;;;;;;;;25.96;58.24;98993.11;625816;226;67001;-65
2022/03/18 04:54:24;;;;;;;;;;;;;;;25.95;57.55;98994.19;625767;226;65341;-64
2022/03/18 04:59:37;;;;;;;;;;;;;;;25.94;61.82;99003.33;625863;226;67089;-66
2022/03/18 05:02:04;;;;;;;;;;;;;;;25.91;62.33;99007.34;625891;226;65277;-66
2022/03/18 05:04:32;;;;;;;;;;;;;;;25.90;62.63;99003.84;625820;226;67397;-66
2022/03/18 05:06:59;;;;;;;;;;;;;;;25.88;61.50;99005.97;625789;226;66961;-66
2022/03/18 05:09:27;;;;;;;;;;;;;;;25.88;60.01;99011.36;625851;226;65265;-65
2022/03/18 05:11:54;;;;;;;;;;;;;;;25.87;61.06;99017.02;625860;226;67105;-66
2022/03/18 05:14:22;;;;;;;;;;;;;;;25.84;62.43;99022.91;625803;226;67018;-66
2022/03/18 05:16:49;;;;;;;;;;;;;;;25.86;59.70;99026.98;626261;226;65272;-66
2022/03/18 05:19:17;;;;;;;;;;;;;;;25.84;62.62;99029.11;626620;226;65146;-65
2022/03/18 05:21:44;;;;;;;;;;;;;;;25.83;60.00;99022.08;626669;226;64789;-65
2022/03/18 05:24:12;;;;;;;;;;;;;;;25.81;59.81;99029.59;626651;226;63001;-66
2022/03/18 05:26:40;;;;;;;;;;;;;;;25.82;62.23;99027.70;626651;226;64907;-66
2022/03/18 05:29:08;;;;;;;;;;;;;;;25.81;58.47;99034.97;626691;226;67002;-64
2022/03/18 05:31:37;;;;;;;;;;;;;;;25.81;60.68;99037.67;626709;226;47064;-66
2022/03/18 05:34:05;;;;;;;;;;;;;;;25.79;57.86;99045.18;626623;226;67205;-66
2022/03/18 05:36:32;;;;;;;;;;;;;;;25.79;59.73;99037.09;626684;226;66830;-66
2022/03/18 05:39:00;;;;;;;;;;;;;;;25.79;57.93;99042.48;626632;226;65411;-66
2022/03/18 05:41:27;;;;;;;;;;;;;;;25.79;62.88;99047.87;626683;226;67168;-66
2022/03/18 05:43:55;;;;;;;;;;;;;;;25.79;62.05;99058.64;626632;226;67342;-66
2022/03/18 05:46:22;;;;;;;;;;;;;;;25.78;59.53;99062.42;626598;226;65376;-66
2022/03/18 05:48:50;;;;;;;;;;;;;;;25.80;62.45;99056.76;626626;226;67037;-66
2022/03/18 05:51:18;;;;;;;;;;;;;;;25.78;61.65;99054.34;626532;226;67118;-66
2022/03/18 05:53:46;;;;;;;;;;;;;;;25.78;60.59;99054.34;626677;226;65309;-66
2022/03/18 05:58:59;;;;;;;;;;;;;;;25.79;60.74;99055.14;626611;226;67112;-66
2022/03/18 06:01:27;;;;;;;;;;;;;;;25.76;62.25;99058.34;626649;226;65256;-66
2022/03/18 06:03:54;;;;;;;;;;;;;;;25.75;62.78;99056.70;626655;226;66863;-66
2022/03/18 06:06:22;;;;;;;;;;;;;;;25.74;63.30;99061.28;626650;226;65192;-66
2022/03/18 06:11:51;;;;;;;;;;;;;;;25.76;62.89;99053.77;626655;226;64886;-65
2022/03/18 06:14:19;;;;;;;;;;;;;;;25.74;63.07;99058.59;626635;226;67018;-65
2022/03/18 06:16:51;;;;;;;;;;;;;;;25.72;63.21;99059.91;626211;226;63259;-65
2022/03/18 06:19:19;;;;;;;;;;;;;;;25.73;63.09;99066.91;625837;226;67297;-65
2022/03/18 06:21:47;;;;;;;;;;;;;;;25.72;62.41;99068.79;625724;226;64798;-65
2022/03/18 06:24:15;;;;;;;;;;;;;;;25.71;63.13;99072.56;625780;226;65312;-65
2022/03/18 06:26:43;;;;;;;;;;;;;;;25.72;63.53;99078.75;625868;226;67840;-65
2022/03/18 06:29:11;;;;;;;;;;;;;;;25.72;63.17;99076.06;625764;226;66996;-65
2022/03/18 06:31:39;;;;;;;;;;;;;;;25.69;62.24;99082.77;625734;226;65137;-65
2022/03/18 06:34:09;;;;;;;;;;;;;;;25.71;63.52;99087.91;625722;226;67737;-65
2022/03/18 06:36:37;;;;;;;;;;;;;;;25.71;62.69;99093.30;625729;226;64907;-65
2022/03/18 06:39:04;;;;;;;;;;;;;;;25.71;63.25;99090.60;625832;226;62858;-65
2022/03/18 06:41:32;;;;;;;;;;;;;;;25.73;62.83;99101.91;625809;226;67384;-65
2022/03/18 06:44:01;;;;;;;;;;;;;;;25.72;63.12;99097.61;625752;226;67053;-65
2022/03/18 06:46:29;;;;;;;;;;;;;;;25.73;62.95;99101.91;625838;226;65298;-65
2022/03/18 06:48:56;;;;;;;;;;;;;;;25.73;62.20;99107.30;625633;226;66968;-65
2022/03/18 06:51:24;;;;;;;;;;;;;;;25.73;63.36;99101.91;625802;226;66823;-65
2022/03/18 06:53:53;;;;;;;;;;;;;;;25.73;62.44;99107.30;625792;226;42647;-64
2022/03/18 06:56:20;;;;;;;;;;;;;;;25.72;62.49;99108.38;625165;226;67266;-68
2022/03/18 06:58:48;;;;;;;;;;;;;;;25.73;62.47;99102.75;625807;226;65015;-65
2022/03/18 07:01:16;;;;;;;;;;;;;;;25.71;61.73;99107.56;620852;226;63232;-68
2022/03/18 07:03:43;;;;;;;;;;;;;;;25.72;61.77;99111.88;613592;231;64797;-66
2022/03/18 07:06:11;;;;;;;;;;;;;;;25.74;62.78;99109.75;613572;231;64820;-66
2022/03/18 07:08:38;;;;;;;;;;;;;;;25.73;62.85;99110.83;613571;231;63258;-67
2022/03/18 07:11:06;;;;;;;;;;;;;;;25.75;62.58;99107.88;613693;231;64835;-66
2022/03/18 07:13:33;;;;;;;;;;;;;;;25.75;61.79;99110.56;613746;231;64616;-67
2022/03/18 07:18:46;;;;;;;;;;;;;;;25.76;61.63;99113.02;607916;233;66589;-78
2022/03/18 07:21:14;;;;;;;;;;;;;;;25.77;56.05;99106.55;607970;233;66695;-66
2022/03/18 07:23:41;;;;;;;;;;;;;;;25.81;60.53;99113.08;607857;233;63145;-68
2022/03/18 07:26:09;;;;;;;;;;;;;;;25.82;60.16;99108.50;607883;233;67365;-67
2022/03/18 07:28:37;;;;;;;;;;;;;;;25.82;61.45;99112.00;607907;233;66750;-67
2022/03/18 07:31:04;;;;;;;;;;;;;;;25.82;60.99;99122.77;608010;233;65435;-68
2022/03/18 07:33:32;;;;;;;;;;;;;;;25.84;60.82;99109.10;607898;233;66969;-71
2022/03/18 07:35:59;;;;;;;;;;;;;;;25.86;61.93;99113.17;607924;233;66754;-70
2022/03/18 07:38:27;;;;;;;;;;;;;;;25.87;61.41;99114.79;607917;233;65189;-70
2022/03/18 07:40:54;;;;;;;;;;;;;;;25.91;60.55;99121.28;607901;233;67238;-70
2022/03/18 07:43:21;;;;;;;;;;;;;;;25.92;61.20;99119.43;607968;233;64559;-70
2022/03/18 07:45:49;;;;;;;;;;;;;;;25.95;61.49;99127.00;607870;233;65437;-70
2022/03/18 07:48:17;;;;;;;;;;;;;;;25.96;60.50;99119.73;607831;233;67191;-71
2022/03/18 07:50:44;;;;;;;;;;;;;;;25.98;60.90;99121.11;608017;233;65679;-70
2022/03/18 07:53:12;;;;;;;;;;;;;;;26.02;60.58;99127.59;607937;233;65149;-70
2022/03/18 07:55:40;;;;;;;;;;;;;;;26.06;59.85;99130.63;607859;233;67217;-70
2022/03/18 07:58:08;;;;;;;;;;;;;;;26.08;59.06;99128.47;607958;233;67070;-71
2022/03/18 08:00:36;;;;;;;;;;;;;;;26.11;58.76;99130.68;607895;233;64132;-70
2022/03/18 08:03:04;;;;;;;;;;;;;;;26.13;58.48;99131.22;607922;233;65028;-70
2022/03/18 08:05:31;;;;;;;;;;;;;;;26.15;59.31;99126.39;608025;233;66836;-70
2022/03/18 08:07:59;;;;;;;;;;;;;;;26.19;57.80;99127.53;607815;233;65360;-69
2022/03/18 08:10:26;;;;;;;;;;;;;;;26.22;57.85;99129.71;607909;233;64742;-69
2022/03/18 08:12:54;;;;;;;;;;;;;;;26.24;58.08;99127.55;607924;233;65283;-68
2022/03/18 08:15:22;;;;;;;;;;;;;;;26.27;57.86;99128.92;607829;233;62991;-67
2022/03/18 08:17:54;;;;;;;;;;;;;;;26.29;57.20;99138.39;612989;230;67205;-67
2022/03/18 08:20:20;;;;;;;;;;;;;;;26.31;57.11;99125.48;613559;231;64812;-68
2022/03/18 08:22:48;;;;;;;;;;;;;;;26.34;56.26;99127.66;613513;231;65231;-62
2022/03/18 08:25:15;;;;;;;;;;;;;;;26.37;57.60;99125.53;613710;231;65026;-67
2022/03/18 08:27:43;;;;;;;;;;;;;;;26.38;58.63;99129.84;613747;231;64797;-67
2022/03/18 08:30:11;;;;;;;;;;;;;;;26.38;57.00;99127.14;613646;231;63164;-65
2022/03/18 08:32:39;;;;;;;;;;;;;;;26.38;58.99;99129.84;613774;231;66951;-66
2022/03/18 08:35:07;;;;;;;;;;;;;;;26.34;57.58;99110.68;613650;231;65828;-66
2022/03/18 08:40:21;;;;;;;;;;;;;;;26.41;56.68;99111.30;613215;231;66202;-63
2022/03/18 08:42:49;;;;;;;;;;;;;;;26.44;57.86;99113.47;613388;231;64930;-65
2022/03/18 08:45:17;;;;;;;;;;;;;;;26.45;57.64;99116.98;613687;231;63141;-66
2022/03/18 08:47:44;;;;;;;;;;;;;;;26.47;57.95;99114.84;613705;231;67133;-64
2022/03/18 08:50:13;;;;;;;;;;;;;;;26.48;57.62;99106.48;613605;231;67224;-60
2022/03/18 08:52:41;;;;;;;;;;;;;;;26.51;56.79;99102.50;613756;231;63220;-68
2022/03/18 08:55:09;;;;;;;;;;;;;;;26.52;58.11;99099.55;613719;231;65008;-68
2022/03/18 08:57:37;;;;;;;;;;;;;;;26.50;55.08;99096.27;613620;231;65072;-69
2022/03/18 09:00:07;;;;;;;;;;;;;;;26.50;56.87;99104.35;613717;231;65297;-64
2022/03/18 09:02:35;;;;;;;;;;;;;;;26.51;57.19;99102.50;613701;231;64874;-64
2022/03/18 09:05:04;;;;;;;;;;;;;;;26.51;57.35;99097.10;613695;231;67069;-65
2022/03/18 09:07:32;;;;;;;;;;;;;;;26.50;57.45;99101.66;618446;228;63214;-64
2022/03/18 09:10:02;;;;;;;;;;;;;;;26.49;56.94;99099.20;621212;228;67333;-64
2022/03/18 09:12:29;;;;;;;;;;;;;;;26.50;56.74;99090.88;621239;228;64458;-64
2022/03/18 09:14:58;;;;;;;;;;;;;;;26.50;56.53;99093.56;621247;228;65228;-65
2022/03/18 09:17:26;;;;;;;;;;;;;;;26.50;56.80;99096.27;621116;228;67207;-65
2022/03/18 09:19:54;;;;;;;;;;;;;;;26.50;56.42;99098.16;621152;228;64438;-65
2022/03/18 09:22:21;;;;;;;;;;;;;;;26.52;55.83;99096.86;621203;228;64296;-61
2022/03/18 09:24:49;;;;;;;;;;;;;;;26.50;55.12;99101.66;621255;228;64587;-64
2022/03/18 09:27:16;;;;;;;;;;;;;;;26.56;50.42;99105.23;621185;228;65359;-61
2022/03/18 09:29:44;;;;;;;;;;;;;;;26.58;56.46;99096.91;621258;228;63336;-62
2022/03/18 09:32:12;;;;;;;;;;;;;;;26.56;55.49;99095.26;621190;228;65829;-63
2022/03/18 09:34:40;;;;;;;;;;;;;;;26.56;55.38;99091.75;621066;228;66830;-65
2022/03/18 09:37:07;;;;;;;;;;;;;;;26.55;55.75;99090.95;620145;228;62900;-64
2022/03/18 09:39:35;;;;;;;;;;;;;;;26.55;56.16;99092.84;621277;228;64954;-64
2022/03/18 09:42:03;;;;;;;;;;;;;;;26.55;55.81;99088.25;621187;228;64933;-64
2022/03/18 09:44:34;;;;;;;;;;;;;;;26.55;55.42;99092.84;621270;228;63375;-67
2022/03/18 09:47:02;;;;;;;;;;;;;;;26.55;56.16;99087.44;621227;228;64410;-64
2022/03/18 09:49:30;;;;;;;;;;;;;;;26.54;55.64;99088.49;621219;228;67038;-63
2022/03/18 09:51:57;;;;;;;;;;;;;;;26.53;55.72;99082.30;621232;228;65136;-62
2022/03/18 09:54:29;;;;;;;;;;;;;;;26.53;54.47;99086.88;621139;228;67456;-63
2022/03/18 09:56:57;;;;;;;;;;;;;;;26.52;55.41;99082.56;621203;228;67050;-63
2022/03/18 09:59:27;;;;;;;;;;;;;;;26.49;55.34;99078.47;619909;228;63119;-62
2022/03/18 10:02:13;;;;;;;;;;;;;;;26.48;54.83;99081.41;618133;228;64961;-62
2022/03/18 10:04:58;;;;;;;;;;;;;;;26.46;53.78;99072.76;616906;228;64918;-62
2022/03/18 10:07:26;;;;;;;;;;;;;;;26.46;51.96;99062.78;616980;230;65307;-62
2022/03/18 10:10:04;;;;;;;;;;;;;;;26.46;53.79;99070.06;617083;230;67074;-58
2022/03/18 10:12:33;;;;;;;;;;;;;;;26.45;52.81;99071.95;617080;230;64966;-62
2022/03/18 10:15:05;;;;;;;;;;;;;;;26.47;53.49;99069.02;617038;230;65600;-61
2022/03/18 10:17:40;;;;;;;;;;;;;;;26.46;52.93;99067.37;618446;229;67102;-60
2022/03/18 10:20:08;;;;;;;;;;;;;;;26.48;52.16;99073.33;619135;229;67138;-61
2022/03/18 10:22:36;;;;;;;;;;;;;;;26.48;51.77;99076.83;619118;229;65285;-64
2022/03/18 10:25:04;;;;;;;;;;;;;;;26.46;53.90;99081.66;619102;229;64872;-63
2022/03/18 10:27:32;;;;;;;;;;;;;;;26.46;53.31;99084.34;619146;229;65044;-63
2022/03/18 10:30:00;;;;;;;;;;;;;;;26.47;52.60;99085.19;618954;229;65278;-62
2022/03/18 10:32:27;;;;;;;;;;;;;;;26.47;50.89;99091.39;619133;229;67192;-63
2022/03/18 10:37:41;;;;;;;;;;;;;;;26.47;52.61;99085.19;619174;229;63303;-62
2022/03/18 10:40:10;;;;;;;;;;;;;;;26.48;52.83;99084.11;618848;229;67287;-62
2022/03/18 10:42:38;;;;;;;;;;;;;;;26.48;53.41;99092.20;618845;229;65442;-63
2022/03/18 10:45:07;;;;;;;;;;;;;;;26.48;52.60;99086.80;619133;229;65205;-63
2022/03/18 10:47:39;;;;;;;;;;;;;;;26.48;53.95;99082.22;619172;229;67231;-62
2022/03/18 10:50:14;;;;;;;;;;;;;;;26.47;52.99;99077.91;619151;229;64937;-62
2022/03/18 10:52:43;;;;;;;;;;;;;;;26.44;49.24;99074.92;619118;229;63274;-63
2022/03/18 10:55:19;;;;;;;;;;;;;;;26.50;50.35;99080.09;618353;229;67293;-64
2022/03/18 10:58:00;;;;;;;;;;;;;;;26.56;48.21;99080.97;619140;229;67088;-65
2022/03/18 11:00:31;;;;;;;;;;;;;;;26.59;49.12;99076.95;619058;229;63033;-66
2022/03/18 11:03:01;;;;;;;;;;;;;;;26.60;49.76;99073.16;619166;229;64790;-60
2022/03/18 11:05:30;;;;;;;;;;;;;;;26.60;50.68;99078.56;619115;229;67096;-60
2022/03/18 11:07:59;;;;;;;;;;;;;;;26.61;49.67;99077.51;619180;229;65142;-60
2022/03/18 11:13:13;;;;;;;;;;;;;;;26.62;51.30;99071.84;619100;229;64686;-61
2022/03/18 11:15:43;;;;;;;;;;;;;;;26.63;51.06;99067.25;619037;229;65218;-58
2022/03/18 11:18:11;;;;;;;;;;;;;;;26.64;50.07;99063.50;619100;229;67214;-61
2022/03/18 11:20:43;;;;;;;;;;;;;;;26.66;53.69;99062.17;619112;229;67080;-60
2022/03/18 11:23:26;;;;;;;;;;;;;;;26.66;52.88;99067.57;619203;229;65482;-61
2022/03/18 11:25:52;;;;;;;;;;;;;;;26.66;52.43;99067.57;619122;229;66936;-59
2022/03/18 11:28:21;;;;;;;;;;;;;;;26.70;54.56;99065.97;619031;229;66819;-59
2022/03/18 11:30:49;;;;;;;;;;;;;;;26.69;52.35;99061.66;619194;229;65393;-60
2022/03/18 11:33:19;;;;;;;;;;;;;;;26.71;52.28;99058.68;619130;229;66889;-60
2022/03/18 11:35:51;;;;;;;;;;;;;;;26.72;51.89;99058.44;619104;229;64526;-59
2022/03/18 11:38:28;;;;;;;;;;;;;;;26.73;52.60;99051.95;619204;229;63442;-59
2022/03/18 11:41:04;;;;;;;;;;;;;;;26.76;51.99;99050.63;619160;229;66861;-63
2022/03/18 11:43:33;;;;;;;;;;;;;;;26.76;51.33;99045.23;619175;229;64554;-61
2022/03/18 11:46:19;;;;;;;;;;;;;;;26.78;51.16;99038.51;619201;229;65413;-60
2022/03/18 11:48:52;;;;;;;;;;;;;;;26.81;51.19;99039.06;619083;229;66904;-66
2022/03/18 11:51:30;;;;;;;;;;;;;;;26.82;52.47;99029.89;619208;229;64639;-62
2022/03/18 11:54:01;;;;;;;;;;;;;;;26.82;50.90;99041.52;619166;229;65650;-60
2022/03/18 11:56:42;;;;;;;;;;;;;;;26.84;51.87;99041.23;619147;229;48378;-60
2022/03/18 11:59:29;;;;;;;;;;;;;;;26.81;53.01;99026.38;619159;229;65230;-67
2022/03/18 12:02:06;;;;;;;;;;;;;;;26.83;51.11;99021.55;619185;229;65375;-62
2022/03/18 12:04:36;;;;;;;;;;;;;;;26.83;52.92;99032.34;619120;229;64972;-63
2022/03/18 12:07:24;;;;;;;;;;;;;;;26.83;52.64;99026.14;619203;229;67087;-63
2022/03/18 12:10:05;;;;;;;;;;;;;;;26.83;51.11;99029.64;618777;229;65335;-66
2022/03/18 12:12:36;;;;;;;;;;;;;;;26.84;50.65;99020.47;619160;229;68435;-63
2022/03/18 12:15:12;;;;;;;;;;;;;;;26.85;49.42;99014.02;619042;229;65066;-62
2022/03/18 12:17:43;;;;;;;;;;;;;;;26.87;52.19;99013.73;619131;229;65223;-63
2022/03/18 12:20:14;;;;;;;;;;;;;;;26.87;50.82;99024.53;619094;229;64303;-61
2022/03/18 12:22:43;;;;;;;;;;;;;;;26.86;51.28;99004.84;619179;229;67717;-62
2022/03/18 12:25:10;;;;;;;;;;;;;;;26.87;50.37;99008.34;619110;229;63335;-63
2022/03/18 12:27:44;;;;;;;;;;;;;;;26.87;49.98;99006.45;619154;229;67325;-61
2022/03/18 12:30:12;;;;;;;;;;;;;;;26.88;50.50;99004.59;619206;229;67152;-63
2022/03/18 12:32:41;;;;;;;;;;;;;;;26.85;52.35;99000.53;619069;229;65499;-62
2022/03/18 12:35:09;;;;;;;;;;;;;;;26.82;51.13;99001.05;618889;229;67387;-62
2022/03/18 12:37:37;;;;;;;;;;;;;;;26.82;49.66;98992.12;619225;229;66863;-63
2022/03/18 12:40:06;;;;;;;;;;;;;;;26.83;48.33;99008.06;619152;229;63837;-62
2022/03/18 12:42:38;;;;;;;;;;;;;;;26.85;49.67;99007.81;619216;229;67192;-63
2022/03/18 12:45:06;;;;;;;;;;;;;;;26.85;48.51;98999.72;617716;229;67113;-63
2022/03/18 12:47:33;;;;;;;;;;;;;;;26.85;49.46;98994.33;619185;229;65325;-63
2022/03/18 12:50:01;;;;;;;;;;;;;;;26.83;49.18;98982.98;619158;229;67300;-63
2022/03/18 12:52:29;;;;;;;;;;;;;;;26.84;49.92;98992.69;619128;229;66859;-64
2022/03/18 12:55:04;;;;;;;;;;;;;;;26.86;49.70;98990.55;618826;229;62987;-64
2022/03/18 12:57:37;;;;;;;;;;;;;;;26.83;49.33;98988.37;618373;229;67182;-63
2022/03/18 13:00:05;;;;;;;;;;;;;;;26.84;49.08;98998.88;618735;227;64742;-63
2022/03/18 13:02:34;;;;;;;;;;;;;;;26.86;48.79;98987.84;621710;227;65530;-62
2022/03/18 13:05:05;;;;;;;;;;;;;;;26.86;49.72;98988.66;622245;227;67243;-62
2022/03/18 13:07:32;;;;;;;;;;;;;;;26.85;50.84;98984.34;624588;227;70946;-63
2022/03/18 13:09:59;;;;;;;;;;;;;;;26.88;46.48;98975.72;624581;227;65405;-62
2022/03/18 13:12:37;;;;;;;;;;;;;;;26.93;46.33;98980.34;624617;227;67022;-62
2022/03/18 13:15:18;;;;;;;;;;;;;;;26.97;47.06;98984.92;624519;227;67441;-63
2022/03/18 13:17:46;;;;;;;;;;;;;;;27.00;48.22;98983.59;622902;227;65431;-62
2022/03/18 13:20:24;;;;;;;;;;;;;;;27.01;48.36;98982.53;622496;228;65864;-59
2022/03/18 13:22:53;;;;;;;;;;;;;;;27.03;48.71;98979.55;622547;228;66986;-59
2022/03/18 13:25:21;;;;;;;;;;;;;;;27.04;48.74;98976.61;622537;228;65312;-59